Time;durP1;ratioP1;P1;durP2;ratioP2;P2;SDS_P1;SDS_P2;PMS_P1;PMS_P2;Temp;Humidity;BMP_temperature;BMP_pressure;BME280_temperature;BME280_humidity;BME280_pressure;Samples;Min_cycle;Max_cycle;Signal;HPM_P1;HPM_P2
2022/03/08 00:01:22;;;;;;;7.77;4.90;;;;;;;-4.91;100.00;101770.78;5045618;28;20580;-72
2022/03/08 00:03:48;;;;;;;8.13;4.57;;;;;;;-4.91;100.00;101767.38;5046186;28;20457;-72
2022/03/08 00:06:15;;;;;;;7.70;4.77;;;;;;;-5.00;100.00;101763.53;5046318;28;20479;-72
2022/03/08 00:08:42;;;;;;;8.43;4.90;;;;;;;-4.95;100.00;101769.75;5046713;28;20469;-72
2022/03/08 00:11:10;;;;;;;7.77;4.73;;;;;;;-5.04;100.00;101776.88;5060565;28;20887;-72
2022/03/08 00:13:37;;;;;;;10.23;5.23;;;;;;;-5.03;100.00;101767.56;5045703;28;20460;-72
2022/03/08 00:16:05;;;;;;;9.53;5.10;;;;;;;-5.03;100.00;101773.56;5046775;28;20793;-74
2022/03/08 00:18:32;;;;;;;8.30;5.50;;;;;;;-5.09;100.00;101764.72;5046427;28;20469;-74
2022/03/08 00:20:58;;;;;;;10.37;5.47;;;;;;;-4.98;100.00;101761.06;5047646;28;20484;-74
2022/03/08 00:23:25;;;;;;;9.67;5.50;;;;;;;-5.09;100.00;101760.50;5047628;28;20465;-74
2022/03/08 00:25:52;;;;;;;8.87;4.97;;;;;;;-5.08;100.00;101751.19;5048062;28;20527;-74
2022/03/08 00:28:18;;;;;;;6.53;4.57;;;;;;;-5.14;100.00;101760.25;5050685;28;20453;-73
2022/03/08 00:30:45;;;;;;;7.03;4.87;;;;;;;-5.11;100.00;101756.13;5045942;28;20477;-72
2022/03/08 00:33:13;;;;;;;9.90;4.77;;;;;;;-5.16;100.00;101749.09;5046834;28;20461;-72
2022/03/08 00:35:39;;;;;;;8.27;5.40;;;;;;;-5.22;100.00;101743.69;5042709;28;20457;-72
2022/03/08 00:38:06;;;;;;;7.20;5.20;;;;;;;-5.10;100.00;101743.50;5048876;28;20457;-73
2022/03/08 00:40:32;;;;;;;9.13;5.13;;;;;;;-5.05;100.00;101736.97;5048185;28;20454;-72
2022/03/08 00:43:00;;;;;;;9.77;5.57;;;;;;;-5.14;100.00;101733.91;5047044;28;20463;-72
2022/03/08 00:45:27;;;;;;;10.03;5.47;;;;;;;-5.07;100.00;101740.22;5049657;28;20531;-72
2022/03/08 00:47:53;;;;;;;8.83;5.67;;;;;;;-5.16;100.00;101733.84;5045634;28;20898;-72
2022/03/08 00:50:23;;;;;;;9.50;4.90;;;;;;;-5.08;100.00;101736.81;5047166;28;20472;-72
2022/03/08 00:52:51;;;;;;;12.37;5.30;;;;;;;-5.15;100.00;101725.44;5061536;28;20544;-72
2022/03/08 00:55:19;;;;;;;9.83;5.10;;;;;;;-5.22;100.00;101730.09;5043847;28;20532;-72
2022/03/08 00:57:46;;;;;;;11.63;5.53;;;;;;;-5.30;100.00;101726.25;5045353;28;20469;-73
2022/03/08 01:00:14;;;;;;;7.17;4.90;;;;;;;-5.29;100.00;101718.72;5045340;28;20457;-72
2022/03/08 01:02:41;;;;;;;8.83;4.90;;;;;;;-5.39;100.00;101718.97;5044187;28;20481;-72
2022/03/08 01:05:08;;;;;;;9.83;5.30;;;;;;;-5.39;100.00;101714.75;5051494;28;20446;-72
2022/03/08 01:07:37;;;;;;;9.20;5.07;;;;;;;-5.43;100.00;101720.47;5066769;28;20458;-72
2022/03/08 01:10:05;;;;;;;6.97;4.77;;;;;;;-5.42;100.00;101726.41;5049250;28;20468;-72
2022/03/08 01:12:32;;;;;;;11.40;5.80;;;;;;;-5.41;100.00;101733.28;5048490;28;20514;-72
2022/03/08 01:15:01;;;;;;;11.73;5.63;;;;;;;-5.45;100.00;101723.69;5065757;28;20462;-72
2022/03/08 01:17:28;;;;;;;8.97;5.80;;;;;;;-5.50;100.00;101728.53;5050661;28;20507;-72
2022/03/08 01:19:54;;;;;;;8.87;5.13;;;;;;;-5.54;100.00;101729.13;5052211;28;20470;-72
2022/03/08 01:22:22;;;;;;;8.67;4.63;;;;;;;-5.56;100.00;101725.63;5052552;28;20477;-72
2022/03/08 01:24:50;;;;;;;9.80;5.53;;;;;;;-5.63;100.00;101726.09;5050377;28;20453;-72
2022/03/08 01:27:16;;;;;;;10.13;5.50;;;;;;;-5.44;100.00;101730.56;5049787;28;20465;-72
2022/03/08 01:29:43;;;;;;;9.83;4.90;;;;;;;-5.57;100.00;101724.78;5066783;28;20493;-72
2022/03/08 01:32:10;;;;;;;11.37;5.20;;;;;;;-5.56;100.00;101725.63;5047678;28;20531;-72
2022/03/08 01:34:37;;;;;;;10.27;5.67;;;;;;;-5.61;100.00;101724.50;5049895;28;20484;-72
2022/03/08 01:37:05;;;;;;;11.43;5.43;;;;;;;-5.66;100.00;101723.34;5049601;28;20506;-72
2022/03/08 01:39:32;;;;;;;11.10;5.57;;;;;;;-5.63;100.00;101716.78;5049127;28;20519;-72
2022/03/08 01:42:00;;;;;;;9.97;5.80;;;;;;;-5.69;100.00;101723.22;5050792;28;20485;-72
2022/03/08 01:44:27;;;;;;;11.63;5.17;;;;;;;-5.77;100.00;101721.09;5046482;28;20462;-72
2022/03/08 01:46:53;;;;;;;8.50;4.97;;;;;;;-5.83;100.00;101723.28;5048199;28;20569;-72
2022/03/08 01:49:20;;;;;;;8.33;5.17;;;;;;;-5.82;100.00;101722.50;5045340;28;20458;-72
2022/03/08 01:51:47;;;;;;;9.30;5.10;;;;;;;-5.83;100.00;101727.50;5048159;28;20559;-72
2022/03/08 01:54:13;;;;;;;8.33;5.13;;;;;;;-5.83;100.00;101730.91;5048845;28;20449;-72
2022/03/08 01:56:40;;;;;;;9.00;5.07;;;;;;;-5.87;100.00;101726.44;5049193;28;21126;-72
2022/03/08 01:59:08;;;;;;;8.80;5.40;;;;;;;-5.84;100.00;101735.88;5051927;28;20457;-72
2022/03/08 02:01:34;;;;;;;9.20;4.80;;;;;;;-5.94;100.00;101725.19;5047129;28;20548;-72
2022/03/08 02:04:01;;;;;;;9.37;5.70;;;;;;;-5.86;100.00;101724.75;5051751;28;20460;-72
2022/03/08 02:06:28;;;;;;;9.50;5.77;;;;;;;-5.87;100.00;101720.44;5045904;28;21066;-72
2022/03/08 02:08:54;;;;;;;8.53;5.53;;;;;;;-6.04;100.00;101717.84;5048289;28;20801;-72
2022/03/08 02:11:23;;;;;;;10.50;5.10;;;;;;;-5.86;100.00;101719.69;5046656;28;20468;-72
2022/03/08 02:13:49;;;;;;;7.17;5.03;;;;;;;-5.95;100.00;101710.72;5048325;28;20472;-72
2022/03/08 02:16:17;;;;;;;9.37;5.20;;;;;;;-6.06;100.00;101711.81;5050337;28;20453;-72
2022/03/08 02:18:43;;;;;;;8.67;5.40;;;;;;;-6.07;100.00;101710.03;5046610;28;20449;-72
2022/03/08 02:21:11;;;;;;;6.87;4.90;;;;;;;-6.15;100.00;101721.44;5049092;28;20477;-72
2022/03/08 02:23:38;;;;;;;7.23;5.47;;;;;;;-5.81;100.00;101708.13;5048793;28;20464;-72
2022/03/08 02:26:04;;;;;;;9.37;5.30;;;;;;;-5.99;100.00;101713.06;5047621;28;20469;-72
2022/03/08 02:28:31;;;;;;;11.10;5.90;;;;;;;-6.10;100.00;101713.28;5044970;28;20460;-72
2022/03/08 02:30:58;;;;;;;11.00;5.43;;;;;;;-6.08;100.00;101715.94;5048652;28;21065;-72
2022/03/08 02:33:25;;;;;;;11.07;5.50;;;;;;;-5.97;100.00;101712.34;5048377;28;20457;-74
2022/03/08 02:35:51;;;;;;;7.47;5.20;;;;;;;-5.98;100.00;101718.22;5048724;28;20476;-74
2022/03/08 02:38:19;;;;;;;8.33;5.00;;;;;;;-6.04;100.00;101720.38;5048098;28;21068;-74
2022/03/08 02:40:46;;;;;;;8.63;4.70;;;;;;;-6.16;100.00;101727.28;5048210;28;20859;-74
2022/03/08 02:43:13;;;;;;;8.13;4.77;;;;;;;-6.16;100.00;101730.69;5048145;28;20465;-74
2022/03/08 02:45:40;;;;;;;7.90;5.20;;;;;;;-6.02;100.00;101728.97;5048499;28;20460;-74
2022/03/08 02:48:07;;;;;;;10.03;5.67;;;;;;;-6.17;100.00;101728.09;5045037;28;20817;-74
2022/03/08 02:50:33;;;;;;;7.73;5.13;;;;;;;-6.24;100.00;101731.91;5047718;28;20476;-74
2022/03/08 02:53:01;;;;;;;9.30;5.03;;;;;;;-6.24;100.00;101728.47;5043786;28;20465;-74
2022/03/08 02:55:31;;;;;;;9.37;4.97;;;;;;;-6.17;100.00;101728.97;5048398;28;20449;-74
2022/03/08 02:57:59;;;;;;;9.43;5.40;;;;;;;-6.01;100.00;101728.19;5044363;28;20446;-74
2022/03/08 03:00:27;;;;;;;7.67;4.80;;;;;;;-6.10;100.00;101731.06;5047681;28;20453;-74
2022/03/08 03:02:54;;;;;;;7.87;5.37;;;;;;;-6.27;100.00;101734.28;5044855;28;20456;-74
2022/03/08 03:05:21;;;;;;;9.53;5.23;;;;;;;-6.12;100.00;101726.66;5048212;28;20461;-74
2022/03/08 03:07:48;;;;;;;10.03;5.63;;;;;;;-6.17;100.00;101738.25;5047191;28;20477;-74
2022/03/08 03:10:17;;;;;;;8.67;5.27;;;;;;;-6.20;100.00;101732.97;5049898;28;20460;-74
2022/03/08 03:12:45;;;;;;;9.13;5.73;;;;;;;-6.20;100.00;101738.94;5046575;28;20549;-74
2022/03/08 03:15:13;;;;;;;8.47;5.43;;;;;;;-5.98;100.00;101735.09;5041611;28;21089;-74
2022/03/08 03:17:40;;;;;;;12.87;6.17;;;;;;;-5.98;100.00;101733.47;5044441;28;21130;-74
2022/03/08 03:20:09;;;;;;;10.30;6.10;;;;;;;-6.13;100.00;101733.41;5048146;28;20453;-74
2022/03/08 03:22:37;;;;;;;8.60;5.77;;;;;;;-6.33;100.00;101742.41;5046940;28;20863;-74
2022/03/08 03:25:04;;;;;;;8.50;6.17;;;;;;;-6.16;100.00;101745.06;5047836;28;20467;-74
2022/03/08 03:27:30;;;;;;;12.63;6.30;;;;;;;-6.31;100.00;101742.50;5045271;28;20463;-74
2022/03/08 03:29:58;;;;;;;12.47;6.37;;;;;;;-6.40;100.00;101744.47;5048094;28;20537;-74
2022/03/08 03:32:24;;;;;;;9.37;6.27;;;;;;;-6.45;100.00;101745.84;5049141;28;20891;-74
2022/03/08 03:34:51;;;;;;;13.50;6.77;;;;;;;-6.48;100.00;101747.41;5047656;28;20449;-74
2022/03/08 03:37:18;;;;;;;12.17;6.67;;;;;;;-6.45;100.00;101756.88;5046607;28;20453;-74
2022/03/08 03:39:45;;;;;;;10.07;6.13;;;;;;;-6.47;100.00;101758.47;5044620;28;20442;-72
2022/03/08 03:42:11;;;;;;;8.70;5.90;;;;;;;-6.48;100.00;101749.09;5047015;28;20484;-72
2022/03/08 03:44:37;;;;;;;8.97;5.73;;;;;;;-6.53;100.00;101750.47;5047273;28;20457;-72
2022/03/08 03:47:05;;;;;;;8.67;5.77;;;;;;;-6.61;100.00;101744.03;5043726;28;21027;-72
2022/03/08 03:49:32;;;;;;;11.57;5.53;;;;;;;-6.61;100.00;101746.56;5045956;28;20452;-72
2022/03/08 03:51:58;;;;;;;10.57;5.63;;;;;;;-6.57;100.00;101753.59;5047058;28;20520;-72
2022/03/08 03:54:25;;;;;;;10.20;5.47;;;;;;;-6.47;100.00;101754.25;5048821;28;20465;-72
2022/03/08 03:56:51;;;;;;;8.97;5.67;;;;;;;-6.59;100.00;101756.03;5046990;28;20481;-72
2022/03/08 03:59:18;;;;;;;8.97;5.63;;;;;;;-6.63;100.00;101745.59;5045728;28;20453;-72
2022/03/08 04:01:44;;;;;;;8.93;5.37;;;;;;;-6.67;100.00;101744.53;5046187;28;20477;-72
2022/03/08 04:04:12;;;;;;;8.80;5.30;;;;;;;-6.73;100.00;101744.16;5049532;28;20535;-72
2022/03/08 04:06:39;;;;;;;7.67;5.23;;;;;;;-6.77;100.00;101745.63;5046869;28;20469;-72
2022/03/08 04:09:06;;;;;;;7.97;5.20;;;;;;;-6.67;100.00;101742.00;5047143;28;20456;-72
2022/03/08 04:11:32;;;;;;;7.73;4.80;;;;;;;-6.71;100.00;101740.94;5046782;28;20477;-72
2022/03/08 04:13:59;;;;;;;8.70;5.70;;;;;;;-6.80;100.00;101740.38;5044120;28;20456;-72
2022/03/08 04:16:25;;;;;;;8.37;5.30;;;;;;;-6.77;100.00;101735.50;5046551;28;20452;-72
2022/03/08 04:18:52;;;;;;;8.70;5.30;;;;;;;-6.77;100.00;101738.03;5046197;28;20449;-72
2022/03/08 04:21:19;;;;;;;10.70;5.07;;;;;;;-6.82;100.00;101739.41;5048454;28;20473;-72
2022/03/08 04:23:46;;;;;;;8.97;5.20;;;;;;;-6.82;100.00;101739.41;5046605;28;20453;-72
2022/03/08 04:26:12;;;;;;;9.50;5.20;;;;;;;-6.85;100.00;101746.81;5046630;28;20464;-72
2022/03/08 04:28:39;;;;;;;8.33;5.13;;;;;;;-6.83;100.00;101739.31;5046678;28;20446;-72
2022/03/08 04:31:05;;;;;;;7.70;4.87;;;;;;;-6.77;100.00;101739.66;5046647;28;20840;-72
2022/03/08 04:33:31;;;;;;;7.13;4.83;;;;;;;-6.91;100.00;101746.41;5046663;28;20452;-72
2022/03/08 04:35:58;;;;;;;6.93;4.70;;;;;;;-6.64;100.00;101743.88;5039775;28;20462;-72
2022/03/08 04:38:25;;;;;;;10.77;4.77;;;;;;;-6.76;100.00;101742.31;5043041;28;20453;-72
2022/03/08 04:40:52;;;;;;;8.20;4.77;;;;;;;-6.87;100.00;101743.31;5043438;28;20919;-72
2022/03/08 04:43:18;;;;;;;8.47;5.13;;;;;;;-6.90;100.00;101751.59;5046621;28;20461;-72
2022/03/08 04:45:45;;;;;;;8.63;5.10;;;;;;;-6.77;100.00;101754.88;5045572;28;20503;-74
2022/03/08 04:48:12;;;;;;;8.97;5.03;;;;;;;-6.72;100.00;101749.34;5046492;28;20508;-74
2022/03/08 04:50:38;;;;;;;9.77;5.17;;;;;;;-6.80;100.00;101750.53;5046137;28;20460;-72
2022/03/08 04:53:05;;;;;;;8.27;5.13;;;;;;;-6.89;100.00;101757.56;5046406;28;20453;-72
2022/03/08 04:55:33;;;;;;;11.33;5.60;;;;;;;-6.78;100.00;101748.94;5046337;28;21137;-72
2022/03/08 04:58:05;;;;;;;9.27;5.87;;;;;;;-6.81;100.00;101752.94;5045258;28;20555;-72
2022/03/08 05:00:31;;;;;;;10.50;5.37;;;;;;;-6.76;100.00;101751.59;5048732;28;20449;-72
2022/03/08 05:02:57;;;;;;;8.63;5.03;;;;;;;-6.87;100.00;101756.00;5045897;28;20461;-72
2022/03/08 05:05:24;;;;;;;7.23;4.97;;;;;;;-6.90;100.00;101756.66;5044985;28;20456;-72
2022/03/08 05:07:50;;;;;;;10.93;5.57;;;;;;;-6.88;100.00;101762.72;5048814;28;20600;-72
2022/03/08 05:10:17;;;;;;;11.63;4.83;;;;;;;-6.94;100.00;101754.72;5046278;28;20461;-72
2022/03/08 05:12:45;;;;;;;8.53;5.13;;;;;;;-6.89;100.00;101768.56;5045956;28;20840;-72
2022/03/08 05:15:11;;;;;;;6.73;4.60;;;;;;;-6.96;100.00;101776.56;5045471;28;20476;-72
2022/03/08 05:17:38;;;;;;;8.60;5.13;;;;;;;-7.03;100.00;101774.44;5046679;28;20449;-72
2022/03/08 05:20:07;;;;;;;9.70;5.40;;;;;;;-6.88;100.00;101769.44;5044861;28;20453;-72
2022/03/08 05:22:33;;;;;;;7.33;4.70;;;;;;;-7.00;100.00;101776.28;5044944;28;20811;-72
2022/03/08 05:25:00;;;;;;;8.23;5.30;;;;;;;-7.05;100.00;101774.34;5045159;28;21262;-72
2022/03/08 05:27:26;;;;;;;7.77;4.73;;;;;;;-7.09;100.00;101780.00;5045245;28;20786;-72
2022/03/08 05:29:54;;;;;;;8.37;5.13;;;;;;;-7.09;100.00;101781.63;5044846;28;20548;-72
2022/03/08 05:32:21;;;;;;;7.33;4.63;;;;;;;-7.11;100.00;101781.53;5041635;28;20499;-72
2022/03/08 05:34:47;;;;;;;10.83;5.63;;;;;;;-7.15;100.00;101789.72;5047147;28;20503;-72
2022/03/08 05:37:14;;;;;;;13.57;6.27;;;;;;;-7.06;100.00;101786.91;5046669;28;20457;-72
2022/03/08 05:39:40;;;;;;;8.17;4.50;;;;;;;-7.05;100.00;101784.47;5044161;28;20537;-72
2022/03/08 05:42:07;;;;;;;8.70;5.67;;;;;;;-7.08;100.00;101786.81;5046329;28;20493;-72
2022/03/08 05:44:34;;;;;;;8.20;5.13;;;;;;;-7.09;100.00;101792.69;5043349;28;20462;-72
2022/03/08 05:47:02;;;;;;;9.63;5.70;;;;;;;-7.08;100.00;101798.63;5041947;28;21043;-72
2022/03/08 05:49:28;;;;;;;9.80;5.10;;;;;;;-7.07;100.00;101801.25;5043211;28;20453;-72
2022/03/08 05:51:55;;;;;;;8.53;4.87;;;;;;;-7.00;100.00;101807.59;5045704;28;20987;-72
2022/03/08 05:54:21;;;;;;;8.43;4.50;;;;;;;-7.11;100.00;101821.22;5043974;28;20968;-72
2022/03/08 05:56:48;;;;;;;10.80;5.97;;;;;;;-7.14;100.00;101827.00;5044723;28;20457;-72
2022/03/08 05:59:14;;;;;;;8.87;5.30;;;;;;;-7.09;100.00;101823.09;5045464;28;21215;-72
2022/03/08 06:01:41;;;;;;;11.20;5.63;;;;;;;-7.10;100.00;101821.34;5045582;28;20563;-72
2022/03/08 06:04:08;;;;;;;11.00;5.63;;;;;;;-6.87;100.00;101819.41;5044718;28;20459;-72
2022/03/08 06:06:35;;;;;;;8.80;5.47;;;;;;;-6.96;100.00;101819.69;5050152;28;20474;-72
2022/03/08 06:09:01;;;;;;;12.43;6.20;;;;;;;-6.89;100.00;101823.50;5047750;28;20480;-74
2022/03/08 06:11:27;;;;;;;10.70;5.37;;;;;;;-6.82;100.00;101819.66;5051587;28;20493;-72
2022/03/08 06:13:54;;;;;;;9.93;5.53;;;;;;;-6.83;100.00;101826.41;5049021;28;20601;-72
2022/03/08 06:16:20;;;;;;;9.50;5.83;;;;;;;-6.78;100.00;101821.63;5051343;28;20457;-72
2022/03/08 06:18:47;;;;;;;9.20;5.93;;;;;;;-6.78;100.00;101821.63;5052059;28;20866;-72
2022/03/08 06:21:15;;;;;;;12.70;5.63;;;;;;;-6.75;100.00;101821.84;5046243;28;20472;-72
2022/03/08 06:23:41;;;;;;;10.37;5.30;;;;;;;-6.53;100.00;101818.97;5049516;28;21039;-72
2022/03/08 06:26:09;;;;;;;10.80;6.20;;;;;;;-6.36;100.00;101817.50;5050301;28;20814;-74
2022/03/08 06:28:35;;;;;;;9.27;5.83;;;;;;;-6.57;100.00;101822.97;5049366;28;20608;-74
2022/03/08 06:31:01;;;;;;;8.10;5.57;;;;;;;-6.41;100.00;101821.41;5050361;28;20866;-74
2022/03/08 06:33:28;;;;;;;8.73;5.37;;;;;;;-6.32;100.00;101817.75;5047586;28;20496;-74
2022/03/08 06:35:54;;;;;;;10.23;5.57;;;;;;;-6.34;100.00;101828.59;5048658;28;20468;-72
2022/03/08 06:38:22;;;;;;;8.97;5.87;;;;;;;-6.30;100.00;101826.38;5050020;28;20445;-72
2022/03/08 06:40:48;;;;;;;9.87;5.77;;;;;;;-6.20;100.00;101822.72;5050971;28;20872;-72
2022/03/08 06:43:15;;;;;;;13.87;7.10;;;;;;;-6.04;100.00;101828.72;5045412;28;20466;-72
2022/03/08 06:45:41;;;;;;;15.83;7.60;;;;;;;-5.90;100.00;101831.25;5047720;28;20453;-75
2022/03/08 06:48:08;;;;;;;13.03;7.87;;;;;;;-5.91;100.00;101824.44;5049130;28;20478;-72
2022/03/08 06:50:35;;;;;;;12.43;6.43;;;;;;;-5.76;100.00;101821.94;5051468;28;20473;-72
2022/03/08 06:53:01;;;;;;;14.87;6.77;;;;;;;-5.73;100.00;101827.19;5050962;28;20453;-72
2022/03/08 06:55:29;;;;;;;12.23;7.03;;;;;;;-5.57;100.00;101825.56;5049181;28;20457;-72
2022/03/08 06:57:55;;;;;;;11.87;6.40;;;;;;;-5.51;100.00;101823.38;5049825;28;20448;-72
2022/03/08 07:00:21;;;;;;;11.23;6.90;;;;;;;-5.40;100.00;101819.78;5047436;28;20454;-72
2022/03/08 07:02:48;;;;;;;14.43;7.30;;;;;;;-5.38;100.00;101820.75;5047988;28;20469;-72
2022/03/08 07:05:14;;;;;;;10.30;6.50;;;;;;;-5.34;100.00;101825.22;5048920;28;20461;-73
2022/03/08 07:07:41;;;;;;;13.83;7.60;;;;;;;-5.26;100.00;101825.69;5048793;28;20836;-73
2022/03/08 07:10:08;;;;;;;11.30;7.10;;;;;;;-5.15;100.00;101822.06;5047156;28;21028;-72
2022/03/08 07:12:36;;;;;;;14.07;7.77;;;;;;;-5.02;100.00;101817.69;5048240;28;20595;-72
2022/03/08 07:15:03;;;;;;;14.37;8.33;;;;;;;-4.95;100.00;101824.84;5049129;28;20809;-72
2022/03/08 07:17:30;;;;;;;13.90;8.80;;;;;;;-4.97;100.00;101819.69;5047025;28;20460;-72
2022/03/08 07:19:56;;;;;;;16.10;9.53;;;;;;;-4.88;100.00;101815.91;5050508;28;20453;-72
2022/03/08 07:22:22;;;;;;;20.07;13.30;;;;;;;-4.83;100.00;101809.41;5048949;28;20469;-72
2022/03/08 07:24:49;;;;;;;18.93;10.93;;;;;;;-4.78;100.00;101806.31;5048545;28;20458;-72
2022/03/08 07:27:16;;;;;;;19.37;10.27;;;;;;;-4.68;100.00;101806.81;5048059;28;20498;-72
2022/03/08 07:29:44;;;;;;;17.57;9.13;;;;;;;-4.60;100.00;101805.56;5044258;28;20457;-72
2022/03/08 07:32:10;;;;;;;16.53;9.87;;;;;;;-4.50;100.00;101809.47;5063406;28;20476;-72
2022/03/08 07:34:37;;;;;;;17.53;10.07;;;;;;;-4.37;100.00;101814.44;5047547;28;20450;-72
2022/03/08 07:37:03;;;;;;;17.10;9.27;;;;;;;-4.29;100.00;101810.66;5049827;28;20750;-72
2022/03/08 07:39:30;;;;;;;20.00;10.10;;;;;;;-4.18;100.00;101809.53;5047360;28;20545;-72
2022/03/08 07:41:56;;;;;;;20.93;10.97;;;;;;;-4.06;100.00;101808.44;5048044;28;20473;-72
2022/03/08 07:44:24;;;;;;;20.33;11.67;;;;;;;-3.96;100.00;101812.31;5045170;28;20454;-72
2022/03/08 07:46:52;;;;;;;28.10;13.27;;;;;;;-3.88;100.00;101817.03;5046355;28;20451;-72
2022/03/08 07:49:18;;;;;;;24.67;12.83;;;;;;;-3.76;100.00;101813.34;5047652;28;20484;-72
2022/03/08 07:51:45;;;;;;;28.80;13.63;;;;;;;-3.71;100.00;101812.81;5048512;28;20500;-72
2022/03/08 07:54:12;;;;;;;29.53;13.87;;;;;;;-3.63;100.00;101819.16;5046993;28;20455;-72
2022/03/08 07:56:39;;;;;;;62.43;28.57;;;;;;;-3.50;100.00;101819.75;5046133;28;20618;-73
2022/03/08 07:59:05;;;;;;;29.03;18.03;;;;;;;-3.31;100.00;101830.09;5047641;28;20458;-72
2022/03/08 08:01:32;;;;;;;30.70;16.30;;;;;;;-3.19;100.00;101822.16;5042926;28;21082;-72
2022/03/08 08:03:59;;;;;;;33.20;15.77;;;;;;;-3.04;100.00;101816.94;5047121;28;20461;-72
2022/03/08 08:06:26;;;;;;;27.70;15.57;;;;;;;-2.92;100.00;101816.66;5046786;28;20445;-72
2022/03/08 08:08:52;;;;;;;30.37;15.07;;;;;;;-2.81;100.00;101822.25;5046948;28;21041;-72
2022/03/08 08:11:19;;;;;;;43.77;23.40;;;;;;;-2.63;100.00;101812.94;5046884;28;20476;-72
2022/03/08 08:13:45;;;;;;;35.77;19.60;;;;;;;-2.43;100.00;101811.28;5046405;28;20788;-72
2022/03/08 08:16:11;;;;;;;32.87;15.50;;;;;;;-2.30;100.00;101818.72;5047050;28;20472;-72
2022/03/08 08:18:38;;;;;;;28.13;14.20;;;;;;;-2.21;100.00;101830.16;5051399;28;20446;-72
2022/03/08 08:21:05;;;;;;;29.87;14.57;;;;;;;-2.13;100.00;101827.16;5046831;28;20491;-72
2022/03/08 08:23:32;;;;;;;31.93;15.37;;;;;;;-2.03;100.00;101822.44;5041050;28;20485;-73
2022/03/08 08:25:58;;;;;;;29.50;14.03;;;;;;;-1.93;100.00;101833.13;5046379;28;20209;-73
2022/03/08 08:28:24;;;;;;;26.33;14.40;;;;;;;-1.82;100.00;101825.94;5046348;28;20215;-72
2022/03/08 08:30:51;;;;;;;30.07;16.40;;;;;;;-1.66;100.00;101831.72;5046592;28;20478;-73
2022/03/08 08:33:18;;;;;;;28.87;15.43;;;;;;;-1.59;100.00;101831.16;5045740;28;20206;-73
2022/03/08 08:35:44;;;;;;;24.93;15.33;;;;;;;-1.46;100.00;101840.22;5047032;28;20465;-73
2022/03/08 08:38:12;;;;;;;28.40;14.93;;;;;;;-1.34;100.00;101838.19;5049296;28;20237;-73
2022/03/08 08:40:38;;;;;;;27.57;14.23;;;;;;;-1.17;100.00;101837.22;5045882;28;20689;-73
2022/03/08 08:43:06;;;;;;;34.80;14.80;;;;;;;-1.03;100.00;101832.66;5045829;28;20226;-73
2022/03/08 08:45:32;;;;;;;22.13;13.60;;;;;;;-0.90;100.00;101835.72;5046763;28;20741;-73
2022/03/08 08:47:59;;;;;;;27.43;14.63;;;;;;;-0.81;100.00;101839.53;5045574;28;20551;-73
2022/03/08 08:50:25;;;;;;;23.60;14.33;;;;;;;-0.72;100.00;101836.47;5045185;28;20567;-73
2022/03/08 08:52:53;;;;;;;24.20;14.20;;;;;;;-0.61;100.00;101844.56;5047307;28;20196;-73
2022/03/08 08:55:21;;;;;;;25.87;12.40;;;;;;;-0.45;100.00;101844.31;5045293;28;20245;-73
2022/03/08 08:57:47;;;;;;;16.37;11.30;;;;;;;-0.32;100.00;101847.34;5050780;28;20274;-73
2022/03/08 09:00:14;;;;;;;18.50;10.70;;;;;;;-0.27;100.00;101843.28;5045638;28;20615;-73
2022/03/08 09:02:43;;;;;;;15.13;9.93;;;;;;;-0.14;100.00;101850.63;5047473;28;20605;-73
2022/03/08 09:05:10;;;;;;;26.33;13.63;;;;;;;0.00;100.00;101848.56;5042650;28;20286;-73
2022/03/08 09:07:37;;;;;;;20.90;10.53;;;;;;;0.14;100.00;101855.06;5048464;28;20199;-73
2022/03/08 09:10:04;;;;;;;16.83;8.87;;;;;;;0.23;100.00;101853.63;5050071;28;20199;-73
2022/03/08 09:12:32;;;;;;;11.93;7.93;;;;;;;0.27;100.00;101853.81;5048517;28;20230;-73
2022/03/08 09:15:01;;;;;;;13.50;7.87;;;;;;;0.34;100.00;101848.09;5046538;28;20207;-73
2022/03/08 09:17:28;;;;;;;13.60;7.37;;;;;;;0.45;100.00;101855.28;5049228;28;20282;-73
2022/03/08 09:19:54;;;;;;;13.33;7.57;;;;;;;0.54;100.00;101848.75;5046350;28;20200;-73
2022/03/08 09:22:21;;;;;;;14.83;8.23;;;;;;;0.72;100.00;101853.69;5051036;28;20223;-73
2022/03/08 09:24:47;;;;;;;10.30;7.03;;;;;;;0.80;100.00;101860.75;5050953;28;20202;-73
2022/03/08 09:27:14;;;;;;;10.33;6.50;;;;;;;0.85;100.00;101856.66;5053138;28;20201;-73
2022/03/08 09:29:41;;;;;;;13.63;5.63;;;;;;;1.02;100.00;101849.50;5051796;28;20226;-73
2022/03/08 09:32:08;;;;;;;9.83;5.07;;;;;;;1.18;99.47;101856.00;5051268;28;20220;-73
2022/03/08 09:34:35;;;;;;;16.67;8.00;;;;;;;1.26;99.10;101846.84;5049908;28;20217;-73
2022/03/08 09:37:01;;;;;;;12.40;5.60;;;;;;;1.42;96.57;101845.63;5051193;28;20742;-73
2022/03/08 09:39:27;;;;;;;6.27;4.17;;;;;;;1.63;94.77;101847.97;5050810;28;20210;-73
2022/03/08 09:41:55;;;;;;;7.83;4.17;;;;;;;1.76;94.38;101849.19;5050020;28;20227;-73
2022/03/08 09:44:22;;;;;;;7.93;4.47;;;;;;;1.97;90.38;101854.09;5048985;28;20664;-73
2022/03/08 09:46:50;;;;;;;29.33;17.13;;;;;;;2.06;90.56;101859.53;5049086;28;20209;-73
2022/03/08 09:49:16;;;;;;;9.60;5.23;;;;;;;2.18;89.98;101861.56;5055103;28;20223;-73
2022/03/08 09:51:43;;;;;;;7.93;4.30;;;;;;;2.19;88.16;101856.47;5051776;28;20947;-72
2022/03/08 09:54:10;;;;;;;8.47;5.00;;;;;;;2.27;88.20;101851.53;5051515;28;20214;-73
2022/03/08 09:56:37;;;;;;;7.87;4.23;;;;;;;2.34;87.31;101852.56;5050547;28;20209;-73
2022/03/08 09:59:04;;;;;;;10.33;4.93;;;;;;;2.39;88.14;101841.59;5049408;28;20211;-73
2022/03/08 10:01:30;;;;;;;5.83;4.33;;;;;;;2.42;87.16;101849.38;5049986;28;20229;-73
2022/03/08 10:03:58;;;;;;;6.93;3.90;;;;;;;2.52;87.37;101858.22;5048399;28;20199;-73
2022/03/08 10:06:38;;;;;;;6.57;3.90;;;;;;;2.52;86.23;101855.66;5051202;28;20199;-73
2022/03/08 10:09:12;;;;;;;8.03;3.80;;;;;;;2.63;85.27;101850.78;5051605;28;20217;-73
2022/03/08 10:11:39;;;;;;;7.43;3.80;;;;;;;2.63;85.06;101854.22;5050697;28;20223;-73
2022/03/08 10:14:07;;;;;;;7.80;3.80;;;;;;;2.66;85.53;101848.28;5053662;28;20252;-73
2022/03/08 10:16:42;;;;;;;8.90;3.47;;;;;;;2.68;84.11;101850.91;5051605;28;20196;-73
2022/03/08 10:19:11;;;;;;;5.73;3.70;;;;;;;2.81;83.12;101843.53;5052053;28;20190;-73
2022/03/08 10:21:40;;;;;;;5.80;3.50;;;;;;;2.95;81.37;101851.59;5050499;28;20219;-73
2022/03/08 10:24:13;;;;;;;4.70;3.43;;;;;;;3.14;81.84;101846.88;5047544;28;20233;-73
2022/03/08 10:26:46;;;;;;;6.83;3.43;;;;;;;3.31;79.45;101858.47;5050102;28;20268;-73
2022/03/08 10:29:12;;;;;;;5.00;3.13;;;;;;;3.33;75.48;101855.94;5049561;28;20230;-73
2022/03/08 10:31:39;;;;;;;5.50;3.10;;;;;;;3.27;76.80;101860.94;5047747;28;20239;-73
2022/03/08 10:34:07;;;;;;;4.00;2.53;;;;;;;3.42;75.68;101861.28;5051384;28;20547;-73
2022/03/08 10:36:37;;;;;;;6.50;2.87;;;;;;;3.53;75.64;101851.22;5051411;28;20191;-73
2022/03/08 10:39:13;;;;;;;5.50;2.40;;;;;;;3.55;74.04;101854.69;5049945;28;20200;-73
2022/03/08 10:41:47;;;;;;;3.10;1.80;;;;;;;3.74;70.30;101859.41;5048848;28;20249;-73
2022/03/08 10:44:13;;;;;;;3.80;1.80;;;;;;;3.84;65.03;101860.50;5048785;28;20199;-73
2022/03/08 10:46:40;;;;;;;2.43;1.40;;;;;;;3.84;66.94;101859.66;5048015;28;20703;-73
2022/03/08 10:49:13;;;;;;;4.60;1.97;;;;;;;4.11;63.71;101875.69;5048191;28;20218;-73
2022/03/08 10:51:41;;;;;;;2.57;1.40;;;;;;;4.23;64.04;101861.28;5049349;28;20692;-73
2022/03/08 10:54:11;;;;;;;3.43;1.57;;;;;;;4.29;63.78;101863.97;5039569;28;20310;-73
2022/03/08 10:56:43;;;;;;;2.37;1.53;;;;;;;4.26;65.77;101856.19;5042711;28;20256;-73
2022/03/08 10:59:11;;;;;;;2.30;1.67;;;;;;;4.39;62.91;101868.50;5047503;28;20215;-73
2022/03/08 11:01:38;;;;;;;3.13;1.90;;;;;;;4.51;65.21;101858.38;5047318;28;20230;-73
2022/03/08 11:04:04;;;;;;;2.97;1.63;;;;;;;4.62;61.61;101865.47;5049542;28;20222;-73
2022/03/08 11:06:32;;;;;;;3.50;1.93;;;;;;;4.66;60.22;101867.25;5051196;28;20207;-73
2022/03/08 11:09:01;;;;;;;4.67;1.90;;;;;;;4.79;59.29;101876.13;5049737;28;20215;-73
2022/03/08 11:11:27;;;;;;;2.70;1.90;;;;;;;4.77;58.84;101864.84;5048918;28;20227;-73
2022/03/08 11:13:54;;;;;;;2.70;1.77;;;;;;;4.71;59.36;101863.94;5048248;28;20629;-73